createdAt,value
2023-04-16T00:02:02.059Z,5.11
2023-04-16T00:04:29.436Z,5.13
2023-04-16T00:06:56.550Z,5.10
2023-04-16T00:09:23.618Z,5.14
2023-04-16T00:11:50.746Z,5.13
2023-04-16T00:14:17.824Z,5.14
2023-04-16T00:16:44.993Z,5.13
2023-04-16T00:19:12.332Z,5.10
2023-04-16T00:21:39.437Z,5.13
2023-04-16T00:24:06.497Z,5.15
2023-04-16T00:26:33.566Z,5.13
2023-04-16T00:29:01.087Z,5.15
2023-04-16T00:31:29.159Z,5.14
2023-04-16T00:33:56.707Z,5.16
2023-04-16T00:36:24.508Z,5.16
2023-04-16T00:38:51.588Z,5.17
2023-04-16T00:41:18.668Z,5.17
2023-04-16T00:43:46.076Z,5.16
2023-04-16T00:46:13.188Z,5.15
2023-04-16T00:48:40.986Z,5.14
2023-04-16T00:51:08.911Z,5.15
2023-04-16T00:53:36.171Z,5.16
2023-04-16T00:56:04.143Z,5.16
2023-04-16T00:58:31.247Z,5.15
2023-04-16T01:00:58.321Z,5.16
2023-04-16T01:03:32.282Z,5.15
2023-04-16T01:05:59.500Z,5.17
2023-04-16T01:08:26.558Z,5.15
2023-04-16T01:10:53.647Z,5.16
2023-04-16T01:13:20.781Z,5.17
2023-04-16T01:15:47.901Z,5.16
2023-04-16T01:18:16.179Z,5.16
2023-04-16T01:20:43.534Z,5.18
2023-04-16T01:23:11.493Z,5.20
2023-04-16T01:25:38.930Z,5.20
2023-04-16T01:28:06.953Z,5.21
2023-04-16T01:30:34.075Z,5.18
2023-04-16T01:33:14.538Z,5.16
2023-04-16T01:35:41.928Z,5.20
2023-04-16T01:38:09.422Z,5.20
2023-04-16T01:40:37.104Z,5.19
2023-04-16T01:43:04.304Z,5.21
2023-04-16T01:45:32.023Z,5.22
2023-04-16T01:47:59.166Z,5.20
2023-04-16T01:50:26.857Z,5.21
2023-04-16T01:52:53.871Z,5.19
2023-04-16T01:55:21.324Z,5.20
2023-04-16T01:57:48.661Z,5.22
2023-04-16T02:00:16.313Z,5.19
2023-04-16T02:02:46.432Z,5.20
2023-04-16T02:05:19.054Z,5.21
2023-04-16T02:07:47.158Z,5.22
2023-04-16T02:10:14.225Z,5.23
2023-04-16T02:12:41.324Z,5.24
2023-04-16T02:15:08.689Z,5.23
2023-04-16T02:17:36.281Z,5.22
2023-04-16T02:20:10.830Z,5.20
2023-04-16T02:22:51.444Z,5.22
2023-04-16T02:25:22.326Z,5.21
2023-04-16T02:27:50.406Z,5.22
2023-04-16T02:30:27.615Z,5.22
2023-04-16T02:32:55.104Z,5.24
2023-04-16T02:35:22.621Z,5.23
2023-04-16T02:37:50.053Z,5.25
2023-04-16T02:40:17.103Z,5.24
2023-04-16T02:42:44.149Z,5.25
2023-04-16T02:45:11.682Z,5.25
2023-04-16T02:47:38.793Z,5.25
2023-04-16T02:50:06.343Z,5.27
2023-04-16T02:52:33.713Z,5.23
2023-04-16T02:57:42.383Z,5.24
2023-04-16T03:00:10.037Z,5.24
2023-04-16T03:02:37.330Z,5.26
2023-04-16T03:05:04.740Z,5.27
2023-04-16T03:07:31.855Z,5.28
2023-04-16T03:09:58.909Z,5.32
2023-04-16T03:12:25.955Z,5.30
2023-04-16T03:14:53.067Z,5.33
2023-04-16T03:17:20.513Z,5.32
2023-04-16T03:19:47.658Z,5.33
2023-04-16T03:22:14.843Z,5.31
2023-04-16T03:24:41.932Z,5.31
2023-04-16T03:27:08.999Z,5.31
2023-04-16T03:29:37.962Z,5.33
2023-04-16T03:32:06.359Z,5.32
2023-04-16T03:34:33.461Z,5.34
2023-04-16T03:37:00.770Z,5.33
2023-04-16T03:39:27.998Z,5.32
2023-04-16T03:41:55.069Z,5.33
2023-04-16T03:44:22.390Z,5.34
2023-04-16T03:46:49.529Z,5.33
2023-04-16T03:49:17.297Z,5.32
2023-04-16T03:51:44.376Z,5.32
2023-04-16T03:54:11.596Z,5.34
2023-04-16T03:56:40.313Z,5.33
2023-04-16T03:59:07.942Z,5.34
2023-04-16T04:01:35.224Z,5.37
2023-04-16T04:04:04.048Z,5.38
2023-04-16T04:06:31.880Z,5.38
2023-04-16T04:08:59.037Z,5.37
2023-04-16T04:11:26.276Z,5.37
2023-04-16T04:13:54.202Z,5.37
2023-04-16T04:16:21.309Z,5.39
2023-04-16T04:18:48.767Z,5.38
2023-04-16T04:21:15.985Z,5.40
2023-04-16T04:23:43.737Z,5.39
2023-04-16T04:26:11.839Z,5.39
2023-04-16T04:28:39.912Z,5.39
2023-04-16T04:31:06.955Z,5.40
2023-04-16T04:33:33.991Z,5.38
2023-04-16T04:36:01.575Z,5.40
2023-04-16T04:38:30.100Z,5.40
2023-04-16T04:40:57.850Z,5.41
2023-04-16T04:43:26.756Z,5.40
2023-04-16T04:45:53.972Z,5.44
2023-04-16T04:48:26.165Z,5.44
2023-04-16T04:50:53.882Z,5.46
2023-04-16T04:53:21.042Z,5.47
2023-04-16T04:55:52.261Z,5.48
2023-04-16T04:58:21.420Z,5.50
2023-04-16T05:00:48.498Z,5.52
2023-04-16T05:03:19.643Z,5.54
2023-04-16T05:05:46.783Z,5.49
2023-04-16T05:08:13.789Z,5.51
2023-04-16T05:10:41.153Z,5.53
2023-04-16T05:13:08.203Z,5.51
2023-04-16T05:15:35.348Z,5.51
2023-04-16T05:18:02.478Z,5.52
2023-04-16T05:20:29.603Z,5.53
2023-04-16T05:22:56.673Z,5.55
2023-04-16T05:25:23.777Z,5.56
2023-04-16T05:27:50.903Z,5.56
2023-04-16T05:30:18.008Z,5.59
2023-04-16T05:32:45.284Z,5.59
2023-04-16T05:35:12.423Z,5.61
2023-04-16T05:37:39.488Z,5.63
2023-04-16T05:40:06.888Z,5.63
2023-04-16T05:42:33.909Z,5.65
2023-04-16T05:45:02.361Z,5.65
2023-04-16T05:47:29.408Z,5.72
2023-04-16T05:49:56.489Z,5.72
2023-04-16T05:52:23.561Z,5.75
2023-04-16T05:54:50.801Z,5.74
2023-04-16T05:57:17.920Z,5.76
2023-04-16T05:59:47.822Z,5.77
2023-04-16T06:02:15.018Z,5.78
2023-04-16T06:04:42.237Z,5.77
2023-04-16T06:07:09.281Z,5.77
2023-04-16T06:09:36.459Z,5.80
2023-04-16T06:12:03.626Z,5.87
2023-04-16T06:14:30.660Z,5.89
2023-04-16T06:16:57.753Z,5.89
2023-04-16T06:19:24.776Z,5.91
2023-04-16T06:21:52.883Z,5.98
2023-04-16T06:24:19.969Z,5.94
2023-04-16T06:26:47.026Z,5.99
2023-04-16T06:29:14.076Z,6.05
2023-04-16T06:31:41.254Z,6.03
2023-04-16T06:34:08.353Z,6.04
2023-04-16T06:36:37.480Z,6.07
2023-04-16T06:39:05.006Z,6.16
2023-04-16T06:41:32.151Z,6.25
2023-04-16T06:43:59.217Z,6.20
2023-04-16T06:46:26.286Z,6.24
2023-04-16T06:48:53.357Z,6.23
2023-04-16T06:51:20.748Z,6.34
2023-04-16T06:53:48.621Z,6.37
2023-04-16T06:56:15.649Z,6.46
2023-04-16T06:58:42.739Z,6.54
2023-04-16T07:01:10.204Z,6.56
2023-04-16T07:03:37.644Z,6.61
2023-04-16T07:06:05.007Z,6.70
2023-04-16T07:08:32.038Z,6.77
2023-04-16T07:10:59.427Z,6.75
2023-04-16T07:13:26.538Z,6.81
2023-04-16T07:15:53.845Z,6.99
2023-04-16T07:18:21.437Z,6.88
2023-04-16T07:20:48.492Z,6.90
2023-04-16T07:23:15.622Z,6.90
2023-04-16T07:25:42.685Z,6.99
2023-04-16T07:28:09.815Z,6.90
2023-04-16T07:30:36.909Z,6.90
2023-04-16T07:33:04.356Z,6.89
2023-04-16T07:35:33.672Z,6.95
2023-04-16T07:38:00.780Z,6.94
2023-04-16T07:40:27.849Z,6.95
2023-04-16T07:42:55.232Z,6.95
2023-04-16T07:45:23.120Z,6.91
2023-04-16T07:47:50.321Z,6.90
2023-04-16T07:50:19.362Z,6.92
2023-04-16T07:52:47.064Z,6.96
2023-04-16T07:55:14.174Z,6.98
2023-04-16T07:57:41.606Z,6.99
2023-04-16T08:00:08.954Z,6.99
2023-04-16T08:02:43.037Z,7.00
2023-04-16T08:05:10.950Z,7.09
2023-04-16T08:07:38.091Z,7.10
2023-04-16T08:10:05.353Z,7.19
2023-04-16T08:12:33.335Z,7.20
2023-04-16T08:15:00.392Z,7.19
2023-04-16T08:17:28.766Z,7.27
2023-04-16T08:19:56.189Z,7.32
2023-04-16T08:22:23.313Z,7.30
2023-04-16T08:24:50.367Z,7.29
2023-04-16T08:27:19.343Z,7.52
2023-04-16T08:29:47.909Z,7.55
2023-04-16T08:32:15.265Z,7.67
2023-04-16T08:34:42.687Z,7.58
2023-04-16T08:37:10.206Z,7.74
2023-04-16T08:39:37.732Z,7.71
2023-04-16T08:42:05.564Z,7.85
2023-04-16T08:44:34.185Z,7.84
2023-04-16T08:47:02.314Z,7.77
2023-04-16T08:49:29.869Z,7.76
2023-04-16T08:51:57.102Z,7.82
2023-04-16T08:54:30.383Z,7.83
2023-04-16T08:56:58.316Z,7.86
2023-04-16T08:59:25.926Z,7.77
2023-04-16T09:01:57.538Z,7.90
2023-04-16T09:04:27.194Z,7.94
2023-04-16T09:06:55.739Z,7.96
2023-04-16T09:09:22.978Z,8.02
2023-04-16T09:11:53.574Z,7.96
2023-04-16T09:14:20.867Z,8.07
2023-04-16T09:16:49.491Z,8.11
2023-04-16T09:19:16.804Z,8.07
2023-04-16T09:21:46.370Z,8.02
2023-04-16T09:24:13.487Z,8.07
2023-04-16T09:26:41.718Z,7.96
2023-04-16T09:29:09.836Z,8.00
2023-04-16T09:31:37.128Z,7.86
2023-04-16T09:34:08.501Z,8.01
2023-04-16T09:36:36.407Z,7.92
2023-04-16T09:39:04.112Z,8.05
2023-04-16T09:41:32.444Z,7.99
2023-04-16T09:44:00.579Z,7.96
2023-04-16T09:46:31.918Z,7.92
2023-04-16T09:49:04.692Z,7.88
2023-04-16T09:51:36.985Z,7.83
2023-04-16T09:54:07.478Z,7.90
2023-04-16T09:56:39.228Z,8.01
2023-04-16T09:59:06.342Z,8.00
2023-04-16T10:01:33.437Z,8.02
2023-04-16T10:04:00.776Z,8.11
2023-04-16T10:06:29.155Z,8.15
2023-04-16T10:08:57.054Z,8.20
2023-04-16T10:11:24.645Z,8.17
2023-04-16T10:13:51.976Z,8.21
2023-04-16T10:16:19.171Z,8.23
2023-04-16T10:18:47.215Z,8.26
2023-04-16T10:21:15.417Z,8.29
2023-04-16T10:23:43.367Z,8.18
2023-04-16T10:26:10.679Z,8.18
2023-04-16T10:28:37.737Z,8.20
2023-04-16T10:31:06.301Z,8.23
2023-04-16T10:33:34.308Z,8.20
2023-04-16T10:36:11.782Z,8.10
2023-04-16T10:38:40.324Z,8.06
2023-04-16T10:41:08.213Z,7.96
2023-04-16T10:43:43.116Z,8.03
2023-04-16T10:46:29.138Z,7.99
2023-04-16T10:48:59.798Z,7.95
2023-04-16T10:51:32.158Z,7.96
2023-04-16T10:54:19.739Z,7.94
2023-04-16T10:56:47.181Z,8.07
2023-04-16T10:59:18.125Z,8.06
2023-04-16T11:01:49.036Z,7.99
2023-04-16T11:04:19.328Z,8.03
2023-04-16T11:07:05.451Z,8.00
2023-04-16T11:09:51.291Z,8.03
2023-04-16T11:12:24.566Z,8.03
2023-04-16T11:14:53.030Z,8.11
2023-04-16T11:17:21.300Z,8.10
2023-04-16T11:19:48.441Z,8.04
2023-04-16T11:22:17.361Z,8.03
2023-04-16T11:24:45.148Z,8.14
2023-04-16T11:27:16.119Z,8.18
2023-04-16T11:29:45.008Z,8.26
2023-04-16T11:32:20.997Z,8.29
2023-04-16T11:34:48.096Z,8.30
2023-04-16T11:37:15.316Z,8.49
2023-04-16T11:39:47.776Z,8.51
2023-04-16T11:42:19.016Z,8.62
2023-04-16T11:44:46.125Z,8.64
2023-04-16T11:47:13.793Z,8.57
2023-04-16T11:49:41.073Z,8.80
2023-04-16T11:52:08.145Z,8.97
2023-04-16T11:54:36.675Z,9.09
2023-04-16T11:57:04.975Z,8.96
2023-04-16T11:59:33.296Z,9.09
2023-04-16T12:02:00.448Z,9.12
2023-04-16T12:04:27.911Z,9.08
2023-04-16T12:07:07.584Z,9.19
2023-04-16T12:09:37.854Z,9.17
2023-04-16T12:12:06.634Z,9.13
2023-04-16T12:14:33.812Z,9.19
2023-04-16T12:17:16.943Z,9.27
2023-04-16T12:19:57.463Z,9.44
2023-04-16T12:22:31.949Z,9.52
2023-04-16T12:24:59.408Z,9.69
2023-04-16T12:27:29.390Z,9.83
2023-04-16T12:30:05.313Z,9.70
2023-04-16T12:32:32.592Z,9.84
2023-04-16T12:34:59.864Z,9.76
2023-04-16T12:37:27.302Z,9.89
2023-04-16T12:39:54.577Z,9.87
2023-04-16T12:42:21.631Z,9.73
2023-04-16T12:44:48.702Z,9.81
2023-04-16T12:47:16.091Z,9.99
2023-04-16T12:49:44.495Z,9.99
2023-04-16T12:52:11.664Z,9.82
2023-04-16T12:54:38.779Z,9.72
2023-04-16T12:57:05.884Z,9.79
2023-04-16T12:59:32.999Z,10.07
2023-04-16T13:02:01.069Z,10.03
2023-04-16T13:04:28.475Z,10.02
2023-04-16T13:06:55.762Z,10.21
2023-04-16T13:09:22.944Z,10.19
2023-04-16T13:11:49.972Z,10.37
2023-04-16T13:14:17.070Z,10.33
2023-04-16T13:16:44.196Z,10.24
2023-04-16T13:19:11.528Z,10.18
2023-04-16T13:21:38.951Z,10.23
2023-04-16T13:24:06.179Z,10.22
2023-04-16T13:26:33.200Z,10.38
2023-04-16T13:29:00.260Z,10.36
2023-04-16T13:31:27.383Z,10.38
2023-04-16T13:33:54.490Z,10.32
2023-04-16T13:36:21.514Z,10.30
2023-04-16T13:38:48.587Z,10.42
2023-04-16T13:41:15.615Z,10.44
2023-04-16T13:43:42.658Z,10.45
2023-04-16T13:46:09.732Z,10.29
2023-04-16T13:48:36.777Z,10.21
2023-04-16T13:51:04.232Z,10.27
2023-04-16T13:53:31.473Z,10.27
2023-04-16T13:55:58.865Z,10.16
2023-04-16T13:58:26.094Z,10.20
2023-04-16T14:00:53.236Z,10.19
2023-04-16T14:03:20.456Z,10.25
2023-04-16T14:05:47.638Z,10.20
2023-04-16T14:08:16.957Z,10.18
2023-04-16T14:10:44.027Z,10.15
2023-04-16T14:13:12.324Z,10.17
2023-04-16T14:15:39.382Z,10.22
2023-04-16T14:18:06.630Z,10.19
2023-04-16T14:20:33.708Z,9.98
2023-04-16T14:23:01.430Z,10.07
2023-04-16T14:25:28.481Z,10.07
2023-04-16T14:27:56.008Z,10.08
2023-04-16T14:30:23.103Z,9.97
2023-04-16T14:32:50.401Z,10.02
2023-04-16T14:35:17.929Z,9.94
2023-04-16T14:37:45.153Z,9.99
2023-04-16T14:40:12.712Z,9.97
2023-04-16T14:42:39.867Z,9.99
2023-04-16T14:45:07.339Z,10.21
2023-04-16T14:47:34.869Z,10.19
2023-04-16T14:50:02.769Z,10.27
2023-04-16T14:52:32.931Z,10.47
2023-04-16T14:55:00.035Z,10.29
2023-04-16T14:57:27.092Z,10.37
2023-04-16T14:59:54.165Z,10.27
2023-04-16T15:02:22.010Z,10.16
2023-04-16T15:04:49.168Z,10.16
2023-04-16T15:07:16.297Z,10.08
2023-04-16T15:09:43.390Z,10.10
2023-04-16T15:12:10.471Z,10.10
2023-04-16T15:14:37.553Z,10.29
2023-04-16T15:17:04.785Z,10.20
2023-04-16T15:19:31.927Z,10.23
2023-04-16T15:21:59.065Z,10.37
2023-04-16T15:24:26.169Z,10.34
2023-04-16T15:26:54.316Z,10.33
2023-04-16T15:29:21.343Z,10.19
2023-04-16T15:31:48.371Z,10.21
2023-04-16T15:34:15.471Z,10.24
2023-04-16T15:36:42.563Z,10.08
2023-04-16T15:39:10.339Z,10.16
2023-04-16T15:41:47.201Z,10.10
2023-04-16T15:44:26.605Z,10.04
2023-04-16T15:46:53.720Z,10.01
2023-04-16T15:49:20.887Z,10.07
2023-04-16T15:51:47.933Z,10.05
2023-04-16T15:54:14.969Z,9.91
2023-04-16T15:56:42.015Z,9.75
2023-04-16T15:59:09.472Z,9.72
2023-04-16T16:01:36.819Z,9.67
2023-04-16T16:04:09.393Z,9.67
2023-04-16T16:06:38.114Z,9.64
2023-04-16T16:09:05.418Z,9.70
2023-04-16T16:11:32.779Z,9.73
2023-04-16T16:14:03.047Z,9.74
2023-04-16T16:16:30.772Z,9.83
2023-04-16T16:18:57.901Z,9.71
2023-04-16T16:21:24.926Z,9.75
2023-04-16T16:23:52.003Z,9.73
2023-04-16T16:26:20.593Z,9.79
2023-04-16T16:28:47.972Z,9.79
2023-04-16T16:31:15.081Z,9.83
2023-04-16T16:33:42.147Z,9.75
2023-04-16T16:36:12.334Z,9.69
2023-04-16T16:38:42.523Z,9.56
2023-04-16T16:41:11.112Z,9.53
2023-04-16T16:43:38.135Z,9.61
2023-04-16T16:46:07.199Z,9.61
2023-04-16T16:48:34.335Z,9.58
2023-04-16T16:51:01.419Z,9.62
2023-04-16T16:53:28.553Z,9.58
2023-04-16T16:55:55.660Z,9.54
2023-04-16T16:58:22.735Z,9.53
2023-04-16T17:00:49.972Z,9.58
2023-04-16T17:03:17.411Z,9.56
2023-04-16T17:05:44.586Z,9.51
2023-04-16T17:08:12.015Z,9.46
2023-04-16T17:10:39.100Z,9.52
2023-04-16T17:13:06.640Z,9.51
2023-04-16T17:15:33.687Z,9.38
2023-04-16T17:18:00.947Z,9.35
2023-04-16T17:20:28.040Z,9.40
2023-04-16T17:22:55.251Z,9.33
2023-04-16T17:25:22.344Z,9.33
2023-04-16T17:27:49.381Z,9.33
2023-04-16T17:30:16.874Z,9.33
2023-04-16T17:32:44.003Z,9.35
2023-04-16T17:35:11.259Z,9.24
2023-04-16T17:37:38.343Z,9.23
2023-04-16T17:40:07.559Z,9.24
2023-04-16T17:42:35.038Z,9.17
2023-04-16T17:45:02.515Z,9.08
2023-04-16T17:47:30.520Z,9.10
2023-04-16T17:49:57.706Z,9.11
2023-04-16T17:52:24.820Z,9.05
2023-04-16T17:54:53.212Z,8.94
2023-04-16T17:57:20.304Z,8.96
2023-04-16T17:59:47.370Z,8.96
2023-04-16T18:02:14.566Z,8.98
2023-04-16T18:04:41.863Z,8.99
2023-04-16T18:07:09.014Z,8.93
2023-04-16T18:09:36.516Z,8.89
2023-04-16T18:12:03.671Z,8.85
2023-04-16T18:14:30.936Z,8.80
2023-04-16T18:16:58.255Z,8.75
2023-04-16T18:19:25.417Z,8.63
2023-04-16T18:21:52.712Z,8.49
2023-04-16T18:24:19.738Z,8.52
2023-04-16T18:26:47.281Z,8.45
2023-04-16T18:29:14.753Z,8.38
2023-04-16T18:31:42.327Z,8.33
2023-04-16T18:34:09.672Z,8.33
2023-04-16T18:36:36.832Z,8.30
2023-04-16T18:39:03.923Z,8.25
2023-04-16T18:41:31.371Z,8.25
2023-04-16T18:43:58.664Z,8.21
2023-04-16T18:46:26.727Z,8.20
2023-04-16T18:48:54.149Z,8.19
2023-04-16T18:51:21.443Z,8.10
2023-04-16T18:53:48.536Z,8.06
2023-04-16T18:56:15.642Z,7.99
2023-04-16T18:58:43.255Z,7.89
2023-04-16T19:01:13.027Z,7.81
2023-04-16T19:03:40.360Z,7.63
2023-04-16T19:06:07.874Z,7.75
2023-04-16T19:08:35.258Z,7.77
2023-04-16T19:11:02.392Z,7.68
2023-04-16T19:13:30.422Z,7.60
2023-04-16T19:16:01.080Z,7.55
2023-04-16T19:18:28.507Z,7.46
2023-04-16T19:20:59.502Z,7.47
2023-04-16T19:23:27.015Z,7.44
2023-04-16T19:25:56.258Z,7.47
2023-04-16T19:28:23.605Z,7.45
2023-04-16T19:30:51.357Z,7.43
2023-04-16T19:33:18.950Z,7.44
2023-04-16T19:35:46.318Z,7.42
2023-04-16T19:38:13.435Z,7.38
2023-04-16T19:40:41.033Z,7.31
2023-04-16T19:43:08.475Z,7.31
2023-04-16T19:45:35.693Z,7.35
2023-04-16T19:48:02.949Z,7.30
2023-04-16T19:50:30.004Z,7.31
2023-04-16T19:52:57.399Z,7.25
2023-04-16T19:55:24.494Z,7.29
2023-04-16T19:57:51.538Z,7.27
2023-04-16T20:00:18.693Z,7.21
2023-04-16T20:02:45.954Z,7.25
2023-04-16T20:05:13.116Z,7.30
2023-04-16T20:07:40.248Z,7.29
2023-04-16T20:10:07.445Z,7.24
2023-04-16T20:12:34.473Z,7.25
2023-04-16T20:15:01.513Z,7.30
2023-04-16T20:17:28.865Z,7.32
2023-04-16T20:20:00.804Z,7.32
2023-04-16T20:22:28.008Z,7.28
2023-04-16T20:24:55.307Z,7.28
2023-04-16T20:27:22.353Z,7.22
2023-04-16T20:29:49.407Z,7.19
2023-04-16T20:32:16.742Z,7.14
2023-04-16T20:34:43.847Z,7.14
2023-04-16T20:37:10.836Z,7.09
2023-04-16T20:39:40.058Z,7.07
2023-04-16T20:42:10.063Z,7.04
2023-04-16T20:44:40.783Z,6.98
2023-04-16T20:47:14.901Z,6.96
2023-04-16T20:49:46.623Z,6.91
2023-04-16T20:52:14.076Z,6.81
2023-04-16T20:54:41.530Z,6.83
2023-04-16T20:57:08.617Z,6.79
2023-04-16T20:59:36.960Z,6.77
2023-04-16T21:02:04.322Z,6.79
2023-04-16T21:04:31.715Z,6.80
2023-04-16T21:06:58.869Z,6.79
2023-04-16T21:09:25.980Z,6.76
2023-04-16T21:11:53.018Z,6.75
2023-04-16T21:14:20.142Z,6.72
2023-04-16T21:16:47.214Z,6.71
2023-04-16T21:19:14.267Z,6.71
2023-04-16T21:21:41.784Z,6.71
2023-04-16T21:24:08.847Z,6.74
2023-04-16T21:26:35.919Z,6.73
2023-04-16T21:29:04.072Z,6.72
2023-04-16T21:31:31.179Z,6.72
2023-04-16T21:33:58.254Z,6.73
2023-04-16T21:36:27.751Z,6.69
2023-04-16T21:38:54.885Z,6.69
2023-04-16T21:41:21.989Z,6.70
2023-04-16T21:43:49.120Z,6.69
2023-04-16T21:46:16.206Z,6.69
2023-04-16T21:48:43.293Z,6.68
2023-04-16T21:51:10.585Z,6.65
2023-04-16T21:53:39.048Z,6.66
2023-04-16T21:56:06.507Z,6.65
2023-04-16T21:58:33.585Z,6.65
2023-04-16T22:01:00.780Z,6.65
2023-04-16T22:03:30.286Z,6.61
2023-04-16T22:06:00.760Z,6.60
2023-04-16T22:08:28.560Z,6.59
2023-04-16T22:10:59.280Z,6.59
2023-04-16T22:13:26.473Z,6.58
2023-04-16T22:15:55.452Z,6.56
2023-04-16T22:18:25.323Z,6.55
2023-04-16T22:20:54.638Z,6.55
2023-04-16T22:23:22.701Z,6.54
2023-04-16T22:25:49.826Z,6.50
2023-04-16T22:28:16.898Z,6.51
2023-04-16T22:30:44.013Z,6.52
2023-04-16T22:33:11.424Z,6.48
2023-04-16T22:35:38.552Z,6.49
2023-04-16T22:38:05.814Z,6.46
2023-04-16T22:40:32.962Z,6.48
2023-04-16T22:42:59.983Z,6.47
2023-04-16T22:45:27.367Z,6.46
2023-04-16T22:47:54.511Z,6.47
2023-04-16T22:50:23.103Z,6.47
2023-04-16T22:52:50.263Z,6.48
2023-04-16T22:55:17.322Z,6.44
2023-04-16T22:57:44.342Z,6.43
2023-04-16T23:00:15.843Z,6.43
2023-04-16T23:02:43.499Z,6.44
2023-04-16T23:05:10.893Z,6.42
2023-04-16T23:07:38.387Z,6.42
2023-04-16T23:10:05.800Z,6.39
2023-04-16T23:12:32.872Z,6.39
2023-04-16T23:15:00.840Z,6.37
2023-04-16T23:17:28.040Z,6.37
2023-04-16T23:19:55.450Z,6.37
2023-04-16T23:22:22.533Z,6.34
2023-04-16T23:24:49.579Z,6.35
2023-04-16T23:27:16.633Z,6.31
2023-04-16T23:29:43.641Z,6.34
2023-04-16T23:32:10.922Z,6.33
2023-04-16T23:34:37.962Z,6.31
2023-04-16T23:37:05.015Z,6.31
2023-04-16T23:39:32.161Z,6.31
2023-04-16T23:41:59.581Z,6.32
2023-04-16T23:44:26.608Z,6.25
2023-04-16T23:46:53.771Z,6.27
2023-04-16T23:49:21.061Z,6.25
2023-04-16T23:51:48.273Z,6.30
2023-04-16T23:54:15.565Z,6.28
2023-04-16T23:56:42.642Z,6.27
2023-04-16T23:59:12.960Z,6.29
